createdAt,value
2023-05-25T00:01:47.950Z,78.84
2023-05-25T00:04:27.452Z,78.84
2023-05-25T00:07:11.242Z,79.19
2023-05-25T00:09:42.126Z,78.35
2023-05-25T00:12:14.363Z,78.37
2023-05-25T00:14:47.362Z,78.97
2023-05-25T00:17:35.639Z,78.97
2023-05-25T00:20:24.459Z,79.67
2023-05-25T00:23:05.862Z,79.37
2023-05-25T00:25:46.170Z,80.05
2023-05-25T00:28:32.608Z,79.49
2023-05-25T00:31:20.068Z,79.19
2023-05-25T00:34:03.851Z,79.04
2023-05-25T00:36:51.996Z,79.03
2023-05-25T00:39:26.586Z,79.70
2023-05-25T00:42:04.189Z,79.42
2023-05-25T00:44:52.413Z,79.70
2023-05-25T00:47:33.302Z,79.51
2023-05-25T00:50:12.182Z,79.66
2023-05-25T00:52:53.621Z,79.67
2023-05-25T00:55:38.385Z,79.89
2023-05-25T00:58:53.953Z,79.55
2023-05-25T01:04:24.261Z,80.83
2023-05-25T01:07:11.699Z,81.56
2023-05-25T01:10:15.212Z,81.50
2023-05-25T01:13:05.538Z,81.84
2023-05-25T01:15:50.379Z,82.35
2023-05-25T01:18:22.224Z,82.63
2023-05-25T01:21:15.725Z,84.15
2023-05-25T01:24:03.973Z,83.88
2023-05-25T01:26:44.140Z,83.87
2023-05-25T01:29:30.849Z,84.34
2023-05-25T01:32:10.172Z,84.32
2023-05-25T01:34:51.139Z,85.12
2023-05-25T01:37:45.849Z,85.47
2023-05-25T01:40:19.526Z,85.51
2023-05-25T01:42:52.368Z,85.90
2023-05-25T01:45:36.750Z,86.76
2023-05-25T01:48:18.858Z,86.55
2023-05-25T01:51:04.895Z,86.95
2023-05-25T01:53:58.245Z,86.41
2023-05-25T01:56:46.765Z,86.34
2023-05-25T01:59:26.097Z,86.54
2023-05-25T02:02:06.608Z,86.75
2023-05-25T02:04:54.625Z,86.81
2023-05-25T02:07:36.093Z,87.17
2023-05-25T02:10:21.067Z,86.98
2023-05-25T02:13:02.217Z,87.67
2023-05-25T02:15:41.632Z,87.45
2023-05-25T02:18:25.459Z,87.83
2023-05-25T02:21:03.494Z,88.01
2023-05-25T02:23:43.059Z,88.79
2023-05-25T02:26:28.254Z,87.68
2023-05-25T02:29:08.275Z,87.31
2023-05-25T02:31:51.501Z,87.56
2023-05-25T02:34:29.635Z,87.82
2023-05-25T02:37:06.997Z,88.44
2023-05-25T02:39:45.466Z,88.95
2023-05-25T02:42:29.931Z,89.13
2023-05-25T02:45:14.416Z,89.23
2023-05-25T02:47:53.295Z,88.30
2023-05-25T02:50:37.028Z,89.07
2023-05-25T02:53:23.362Z,89.02
2023-05-25T02:56:07.435Z,88.25
2023-05-25T02:58:44.095Z,88.03
2023-05-25T03:01:30.530Z,87.11
2023-05-25T03:04:01.256Z,86.56
2023-05-25T03:06:44.795Z,86.89
2023-05-25T03:09:46.259Z,87.02
2023-05-25T03:12:22.229Z,88.44
2023-05-25T03:15:10.631Z,89.21
2023-05-25T03:17:53.257Z,89.18
2023-05-25T03:20:33.618Z,89.98
2023-05-25T03:23:12.503Z,89.56
2023-05-25T03:25:54.134Z,89.26
2023-05-25T03:28:31.496Z,89.11
2023-05-25T03:31:23.936Z,88.42
2023-05-25T03:34:04.740Z,89.10
2023-05-25T03:36:57.448Z,89.02
2023-05-25T03:39:36.731Z,88.83
2023-05-25T03:42:12.037Z,88.84
2023-05-25T03:44:51.775Z,86.98
2023-05-25T03:47:37.107Z,87.33
2023-05-25T03:50:15.870Z,86.99
2023-05-25T03:53:09.189Z,86.88
2023-05-25T03:55:40.545Z,86.64
2023-05-25T03:58:20.967Z,86.23
2023-05-25T04:01:14.209Z,86.32
2023-05-25T04:04:03.616Z,86.07
2023-05-25T04:06:40.579Z,86.07
2023-05-25T04:09:19.924Z,86.09
2023-05-25T04:12:01.882Z,85.83
2023-05-25T04:14:36.838Z,85.88
2023-05-25T04:17:14.969Z,85.63
2023-05-25T04:19:55.306Z,86.67
2023-05-25T04:22:45.333Z,86.36
2023-05-25T04:25:31.855Z,87.90
2023-05-25T04:28:18.868Z,88.51
2023-05-25T04:31:22.919Z,88.76
2023-05-25T04:34:12.906Z,87.69
2023-05-25T04:39:50.818Z,90.36
2023-05-25T04:42:28.671Z,90.34
2023-05-25T04:45:00.856Z,89.80
2023-05-25T04:47:45.623Z,90.77
2023-05-25T04:50:27.792Z,90.02
2023-05-25T04:55:54.377Z,89.06
2023-05-25T04:58:34.637Z,89.60
2023-05-25T05:01:18.189Z,88.60
2023-05-25T05:04:03.505Z,89.41
2023-05-25T05:06:42.883Z,89.35
2023-05-25T05:09:34.634Z,88.20
2023-05-25T05:12:19.194Z,88.32
2023-05-25T05:15:02.910Z,88.63
2023-05-25T05:17:50.257Z,87.84
2023-05-25T05:20:47.202Z,88.26
2023-05-25T05:23:20.904Z,88.14
2023-05-25T05:26:12.745Z,88.25
2023-05-25T05:28:52.817Z,88.40
2023-05-25T05:31:31.746Z,87.98
2023-05-25T05:34:08.586Z,88.37
2023-05-25T05:36:57.291Z,88.40
2023-05-25T05:39:37.418Z,89.24
2023-05-25T05:42:30.020Z,90.04
2023-05-25T05:45:08.551Z,90.49
2023-05-25T05:47:48.249Z,90.44
2023-05-25T05:50:25.298Z,89.83
2023-05-25T05:53:04.232Z,89.79
2023-05-25T05:55:52.365Z,89.69
2023-05-25T05:58:37.366Z,89.71
2023-05-25T06:01:35.115Z,87.65
2023-05-25T06:04:10.900Z,86.29
2023-05-25T06:06:48.519Z,86.85
2023-05-25T06:09:29.009Z,86.32
2023-05-25T06:12:13.867Z,86.56
2023-05-25T06:14:59.923Z,85.58
2023-05-25T06:17:46.946Z,86.18
2023-05-25T06:20:29.950Z,86.12
2023-05-25T06:23:09.826Z,86.69
2023-05-25T06:25:51.212Z,86.02
2023-05-25T06:28:32.361Z,86.31
2023-05-25T06:31:34.452Z,86.66
2023-05-25T06:34:08.518Z,86.16
2023-05-25T06:36:53.092Z,86.12
2023-05-25T06:39:29.264Z,86.39
2023-05-25T06:42:15.206Z,86.50
2023-05-25T06:45:08.895Z,85.15
2023-05-25T06:48:02.345Z,84.17
2023-05-25T06:50:38.906Z,85.34
2023-05-25T06:53:11.842Z,85.65
2023-05-25T06:55:52.007Z,83.86
2023-05-25T06:58:33.156Z,83.78
2023-05-25T07:01:04.067Z,82.19
2023-05-25T07:03:47.542Z,81.75
2023-05-25T07:06:29.360Z,82.69
2023-05-25T07:09:09.158Z,81.78
2023-05-25T07:11:46.417Z,79.94
2023-05-25T07:14:24.268Z,81.71
2023-05-25T07:16:56.672Z,80.64
2023-05-25T07:19:50.250Z,81.44
2023-05-25T07:22:24.848Z,81.36
2023-05-25T07:25:03.082Z,79.39
2023-05-25T07:27:42.512Z,79.26
2023-05-25T07:30:22.546Z,78.73
2023-05-25T07:32:53.978Z,79.47
2023-05-25T07:35:48.874Z,77.71
2023-05-25T07:38:28.959Z,78.58
2023-05-25T07:41:03.447Z,79.03
2023-05-25T07:43:42.185Z,78.40
2023-05-25T07:46:15.366Z,77.04
2023-05-25T07:48:53.203Z,79.96
2023-05-25T07:51:38.181Z,77.90
2023-05-25T07:54:20.156Z,77.63
2023-05-25T07:56:59.447Z,76.49
2023-05-25T07:59:35.104Z,77.05
2023-05-25T08:02:18.233Z,76.78
2023-05-25T08:05:21.355Z,77.30
2023-05-25T08:08:13.340Z,73.71
2023-05-25T08:10:59.669Z,75.47
2023-05-25T08:13:45.539Z,74.12
2023-05-25T08:16:22.465Z,71.93
2023-05-25T08:18:57.898Z,73.64
2023-05-25T08:21:39.284Z,74.23
2023-05-25T08:24:26.317Z,71.13
2023-05-25T08:27:13.306Z,71.04
2023-05-25T08:29:45.426Z,71.87
2023-05-25T08:32:24.792Z,68.81
2023-05-25T08:35:21.789Z,67.76
2023-05-25T08:37:58.590Z,68.40
2023-05-25T08:40:42.757Z,67.35
2023-05-25T08:43:21.874Z,68.51
2023-05-25T08:45:58.578Z,67.00
2023-05-25T08:48:45.170Z,66.96
2023-05-25T08:51:30.014Z,66.86
2023-05-25T08:54:16.576Z,65.35
2023-05-25T08:57:10.964Z,62.95
2023-05-25T08:59:51.578Z,63.39
2023-05-25T09:02:42.987Z,62.49
2023-05-25T09:05:27.589Z,62.20
2023-05-25T09:08:05.707Z,59.83
2023-05-25T09:10:41.752Z,60.40
2023-05-25T09:13:22.407Z,62.08
2023-05-25T09:15:54.723Z,60.57
2023-05-25T09:18:35.956Z,60.65
2023-05-25T09:21:09.658Z,59.21
2023-05-25T09:23:54.085Z,59.27
2023-05-25T09:26:32.041Z,59.76
2023-05-25T09:29:17.402Z,61.48
2023-05-25T09:31:53.740Z,59.49
2023-05-25T09:34:41.254Z,60.05
2023-05-25T09:37:27.527Z,61.20
2023-05-25T09:40:16.737Z,61.34
2023-05-25T09:42:55.558Z,58.52
2023-05-25T09:48:42.933Z,58.12
2023-05-25T09:51:39.706Z,59.22
2023-05-25T09:54:29.330Z,58.21
2023-05-25T09:57:10.285Z,56.16
2023-05-25T09:59:50.779Z,55.95
2023-05-25T10:02:29.007Z,54.87
2023-05-25T10:05:06.349Z,55.49
2023-05-25T10:08:01.167Z,55.54
2023-05-25T10:10:38.138Z,55.78
2023-05-25T10:13:13.604Z,56.28
2023-05-25T10:15:51.930Z,54.76
2023-05-25T10:18:40.030Z,54.35
2023-05-25T10:21:24.631Z,54.14
2023-05-25T10:24:08.986Z,53.85
2023-05-25T10:26:51.592Z,55.31
2023-05-25T10:29:44.000Z,56.95
2023-05-25T10:32:26.482Z,57.67
2023-05-25T10:35:11.115Z,55.73
2023-05-25T10:37:57.784Z,53.34
2023-05-25T10:40:38.636Z,53.01
2023-05-25T10:43:19.241Z,53.63
2023-05-25T10:46:00.557Z,54.68
2023-05-25T10:48:53.388Z,57.40
2023-05-25T10:51:47.621Z,57.12
2023-05-25T10:54:24.365Z,58.42
2023-05-25T11:00:13.750Z,60.03
2023-05-25T11:03:11.083Z,59.27
2023-05-25T11:05:59.126Z,59.86
2023-05-25T11:08:59.989Z,60.14
2023-05-25T11:12:19.089Z,60.91
2023-05-25T11:15:19.321Z,60.43
2023-05-25T11:18:08.539Z,58.12
2023-05-25T11:20:51.442Z,58.30
2023-05-25T11:23:38.929Z,59.98
2023-05-25T11:26:34.652Z,60.70
2023-05-25T11:29:29.185Z,58.04
2023-05-25T11:32:09.960Z,56.09
2023-05-25T11:34:50.946Z,54.92
2023-05-25T11:37:33.352Z,55.73
2023-05-25T11:43:31.493Z,56.40
2023-05-25T11:46:06.568Z,57.55
2023-05-25T11:49:00.352Z,58.43
2023-05-25T11:51:36.427Z,60.55
2023-05-25T11:54:19.262Z,66.70
2023-05-25T11:57:02.487Z,65.36
2023-05-25T11:59:48.158Z,64.37
2023-05-25T12:02:25.144Z,64.57
2023-05-25T12:05:07.483Z,63.24
2023-05-25T12:07:48.980Z,61.42
2023-05-25T12:10:24.548Z,60.41
2023-05-25T12:13:09.489Z,59.22
2023-05-25T12:15:50.555Z,59.59
2023-05-25T12:18:30.976Z,59.37
2023-05-25T12:21:10.887Z,60.21
2023-05-25T12:23:49.598Z,58.78
2023-05-25T12:26:41.030Z,57.62
2023-05-25T12:29:23.023Z,55.25
2023-05-25T12:32:09.270Z,56.08
2023-05-25T12:34:46.223Z,60.72
2023-05-25T12:37:30.953Z,65.35
2023-05-25T12:40:30.605Z,71.72
2023-05-25T12:43:24.748Z,71.88
2023-05-25T12:46:00.355Z,73.07
2023-05-25T12:48:53.010Z,81.05
2023-05-25T12:51:36.011Z,84.17
2023-05-25T12:54:17.601Z,80.61
2023-05-25T12:57:15.851Z,79.82
2023-05-25T13:00:02.208Z,80.36
2023-05-25T13:02:39.719Z,84.94
2023-05-25T13:05:29.587Z,80.86
2023-05-25T13:08:03.718Z,83.88
2023-05-25T13:10:44.918Z,75.99
2023-05-25T13:13:27.134Z,77.42
2023-05-25T13:16:11.345Z,67.84
2023-05-25T13:19:00.197Z,67.24
2023-05-25T13:21:38.288Z,66.27
2023-05-25T13:24:16.827Z,63.63
2023-05-25T13:26:51.802Z,60.98
2023-05-25T13:29:29.656Z,61.48
2023-05-25T13:32:22.794Z,62.03
2023-05-25T13:35:05.384Z,63.59
2023-05-25T13:37:46.754Z,60.38
2023-05-25T13:40:29.028Z,63.02
2023-05-25T13:43:14.047Z,64.17
2023-05-25T13:45:56.236Z,62.05
2023-05-25T13:48:39.349Z,61.08
2023-05-25T13:51:10.053Z,62.76
2023-05-25T13:53:49.782Z,63.26
2023-05-25T13:56:41.073Z,62.67
2023-05-25T13:59:25.432Z,59.49
2023-05-25T14:01:57.249Z,60.83
2023-05-25T14:04:30.829Z,59.54
2023-05-25T14:07:28.278Z,60.07
2023-05-25T14:10:10.031Z,60.60
2023-05-25T14:12:45.496Z,61.48
2023-05-25T14:15:22.779Z,60.87
2023-05-25T14:18:00.887Z,61.24
2023-05-25T14:20:46.253Z,59.92
2023-05-25T14:23:27.630Z,59.13
2023-05-25T14:26:11.937Z,59.65
2023-05-25T14:28:46.342Z,60.92
2023-05-25T14:31:25.327Z,63.73
2023-05-25T14:33:59.722Z,66.29
2023-05-25T14:36:35.938Z,66.94
2023-05-25T14:39:17.022Z,65.15
2023-05-25T14:41:57.720Z,60.79
2023-05-25T14:44:39.040Z,60.39
2023-05-25T14:47:20.432Z,56.79
2023-05-25T14:49:57.032Z,56.48
2023-05-25T14:52:36.421Z,58.60
2023-05-25T14:55:18.814Z,58.41
2023-05-25T14:58:32.227Z,59.58
2023-05-25T15:01:07.682Z,61.23
2023-05-25T15:03:56.112Z,61.36
2023-05-25T15:06:35.731Z,66.67
2023-05-25T15:09:19.720Z,69.15
2023-05-25T15:11:58.919Z,70.92
2023-05-25T15:14:40.527Z,70.99
2023-05-25T15:17:13.640Z,71.79
2023-05-25T15:19:56.917Z,70.07
2023-05-25T15:22:32.624Z,71.01
2023-05-25T15:25:18.911Z,70.49
2023-05-25T15:28:05.475Z,71.04
2023-05-25T15:31:03.403Z,67.50
2023-05-25T15:33:51.597Z,68.10
2023-05-25T15:36:37.199Z,68.96
2023-05-25T15:39:12.613Z,68.26
2023-05-25T15:42:00.839Z,62.01
2023-05-25T15:44:36.892Z,60.05
2023-05-25T15:47:36.003Z,67.05
2023-05-25T15:50:20.557Z,66.84
2023-05-25T15:52:57.355Z,66.79
2023-05-25T15:55:28.878Z,70.67
2023-05-25T15:58:11.735Z,70.02
2023-05-25T16:00:48.130Z,71.15
2023-05-25T16:03:35.745Z,71.74
2023-05-25T16:06:17.004Z,71.09
2023-05-25T16:09:09.060Z,70.97
2023-05-25T16:11:45.166Z,72.56
2023-05-25T16:14:22.819Z,72.49
2023-05-25T16:17:09.684Z,73.15
2023-05-25T16:19:58.063Z,73.74
2023-05-25T16:22:41.989Z,74.39
2023-05-25T16:25:14.362Z,73.81
2023-05-25T16:28:00.016Z,74.35
2023-05-25T16:30:33.163Z,75.24
2023-05-25T16:33:10.270Z,74.83
2023-05-25T16:35:54.284Z,74.49
2023-05-25T16:38:35.820Z,72.36
2023-05-25T16:41:20.642Z,72.01
2023-05-25T16:44:02.036Z,72.91
2023-05-25T16:46:40.964Z,72.98
2023-05-25T16:49:20.622Z,70.65
2023-05-25T16:52:05.456Z,70.18
2023-05-25T16:54:45.408Z,70.17
2023-05-25T16:57:32.763Z,70.43
2023-05-25T17:00:13.880Z,69.21
2023-05-25T17:02:46.794Z,67.47
2023-05-25T17:05:26.788Z,66.74
2023-05-25T17:08:04.789Z,67.03
2023-05-25T17:10:45.428Z,67.68
2023-05-25T17:13:27.549Z,68.45
2023-05-25T17:16:01.020Z,68.87
2023-05-25T17:18:43.047Z,69.94
2023-05-25T17:21:23.478Z,70.46
2023-05-25T17:23:58.057Z,70.93
2023-05-25T17:26:57.200Z,72.05
2023-05-25T17:29:31.130Z,73.56
2023-05-25T17:32:01.597Z,74.78
2023-05-25T17:34:31.996Z,75.27
2023-05-25T17:37:03.348Z,75.80
2023-05-25T17:39:38.713Z,76.00
2023-05-25T17:42:13.494Z,76.73
2023-05-25T17:44:47.113Z,76.51
2023-05-25T17:47:21.899Z,76.45
2023-05-25T17:49:53.802Z,76.08
2023-05-25T17:52:24.529Z,76.43
2023-05-25T17:55:03.693Z,76.35
2023-05-25T17:57:34.728Z,75.99
2023-05-25T18:00:10.198Z,76.00
2023-05-25T18:02:45.492Z,76.71
2023-05-25T18:05:16.092Z,77.37
2023-05-25T18:07:49.086Z,77.93
2023-05-25T18:10:26.332Z,78.46
2023-05-25T18:12:58.341Z,78.89
2023-05-25T18:15:30.096Z,79.48
2023-05-25T18:18:04.204Z,79.80
2023-05-25T18:20:41.609Z,80.22
2023-05-25T18:23:31.583Z,80.83
2023-05-25T18:26:07.375Z,80.62
2023-05-25T18:28:39.220Z,81.00
2023-05-25T18:31:24.197Z,81.16
2023-05-25T18:33:54.938Z,81.27
2023-05-25T18:36:26.297Z,81.68
2023-05-25T18:39:00.975Z,82.02
2023-05-25T18:41:34.820Z,82.08
2023-05-25T18:44:10.418Z,82.52
2023-05-25T18:46:44.737Z,82.80
2023-05-25T18:49:17.018Z,82.66
2023-05-25T18:51:47.502Z,83.06
2023-05-25T18:54:20.763Z,83.05
2023-05-25T18:56:58.736Z,83.68
2023-05-25T18:59:29.547Z,83.55
2023-05-25T19:02:01.899Z,83.81
2023-05-25T19:04:42.826Z,83.87
2023-05-25T19:07:19.094Z,83.76
2023-05-25T19:09:51.429Z,84.49
2023-05-25T19:12:29.426Z,84.50
2023-05-25T19:15:02.071Z,84.37
2023-05-25T19:17:37.429Z,84.73
2023-05-25T19:20:12.904Z,84.59
2023-05-25T19:22:49.034Z,84.92
2023-05-25T19:25:23.454Z,85.41
2023-05-25T19:27:58.960Z,85.36
2023-05-25T19:30:31.696Z,85.79
2023-05-25T19:33:05.787Z,86.18
2023-05-25T19:35:36.680Z,85.36
2023-05-25T19:38:08.792Z,85.19
2023-05-25T19:40:49.059Z,85.43
2023-05-25T19:43:30.615Z,85.79
2023-05-25T19:46:04.269Z,86.08
2023-05-25T19:48:38.758Z,85.82
2023-05-25T19:51:09.883Z,86.10
2023-05-25T19:53:41.739Z,86.03
2023-05-25T19:56:16.168Z,86.49
2023-05-25T19:58:49.470Z,86.53
2023-05-25T20:01:30.542Z,86.54
2023-05-25T20:04:07.246Z,86.65
2023-05-25T20:06:40.670Z,86.82
2023-05-25T20:09:13.282Z,86.97
2023-05-25T20:11:45.558Z,86.43
2023-05-25T20:14:20.094Z,86.63
2023-05-25T20:16:58.417Z,87.18
2023-05-25T20:19:31.006Z,87.70
2023-05-25T20:22:03.537Z,87.87
2023-05-25T20:24:43.610Z,88.56
2023-05-25T20:27:18.128Z,89.13
2023-05-25T20:29:59.605Z,88.59
2023-05-25T20:32:29.985Z,89.37
2023-05-25T20:35:07.356Z,90.20
2023-05-25T20:37:39.814Z,90.88
2023-05-25T20:40:14.638Z,91.42
2023-05-25T20:42:46.612Z,91.19
2023-05-25T20:45:22.910Z,90.93
2023-05-25T20:48:05.211Z,90.58
2023-05-25T20:50:40.099Z,90.86
2023-05-25T20:53:16.376Z,89.91
2023-05-25T20:55:51.165Z,90.48
2023-05-25T20:58:25.530Z,90.95
2023-05-25T21:01:09.132Z,90.95
2023-05-25T21:03:46.189Z,91.33
2023-05-25T21:06:19.185Z,91.36
2023-05-25T21:08:53.220Z,91.82
2023-05-25T21:11:26.517Z,91.31
2023-05-25T21:14:18.518Z,90.96
2023-05-25T21:17:02.116Z,91.61
2023-05-25T21:19:46.368Z,92.11
2023-05-25T21:22:32.042Z,92.39
2023-05-25T21:25:07.765Z,92.50
2023-05-25T21:27:44.194Z,92.85
2023-05-25T21:30:25.549Z,92.41
2023-05-25T21:33:09.044Z,92.54
2023-05-25T21:36:08.097Z,93.31
2023-05-25T21:39:04.226Z,93.11
2023-05-25T21:41:45.180Z,94.17
2023-05-25T21:44:27.173Z,95.31
2023-05-25T21:47:12.849Z,95.84
2023-05-25T21:49:53.790Z,96.23
2023-05-25T21:52:37.611Z,96.55
2023-05-25T21:55:23.720Z,97.02
2023-05-25T21:58:06.893Z,96.98
2023-05-25T22:00:37.901Z,97.16
2023-05-25T22:03:18.549Z,97.12
2023-05-25T22:06:00.162Z,96.59
2023-05-25T22:08:43.138Z,97.29
2023-05-25T22:11:30.548Z,96.81
2023-05-25T22:14:09.551Z,97.04
2023-05-25T22:16:51.452Z,96.96
2023-05-25T22:19:36.170Z,97.44
2023-05-25T22:22:25.074Z,97.31
2023-05-25T22:25:01.727Z,97.21
2023-05-25T22:27:39.123Z,96.91
2023-05-25T22:30:18.642Z,97.05
2023-05-25T22:32:57.513Z,98.20
2023-05-25T22:35:43.295Z,98.92
2023-05-25T22:38:28.164Z,99.84
2023-05-25T22:44:06.236Z,100.00
2023-05-25T22:46:47.643Z,100.00
2023-05-25T22:49:31.919Z,100.00
2023-05-25T22:52:07.511Z,100.00
2023-05-25T22:55:02.006Z,100.00
2023-05-25T22:57:39.006Z,100.00
2023-05-25T23:00:44.118Z,100.00
2023-05-25T23:03:25.693Z,100.00
2023-05-25T23:06:06.828Z,100.00
2023-05-25T23:08:50.219Z,100.00
2023-05-25T23:11:25.700Z,100.00
2023-05-25T23:13:58.320Z,100.00
2023-05-25T23:16:39.600Z,100.00
2023-05-25T23:19:19.081Z,100.00
2023-05-25T23:22:05.991Z,100.00
2023-05-25T23:24:49.712Z,100.00
2023-05-25T23:27:42.259Z,100.00
2023-05-25T23:30:17.147Z,100.00
2023-05-25T23:33:01.901Z,100.00
2023-05-25T23:35:36.858Z,100.00
2023-05-25T23:38:15.570Z,100.00
2023-05-25T23:40:52.659Z,100.00
2023-05-25T23:43:37.853Z,100.00
2023-05-25T23:46:18.666Z,100.00
2023-05-25T23:48:56.082Z,100.00
2023-05-25T23:51:38.244Z,100.00
2023-05-25T23:54:20.931Z,100.00
2023-05-25T23:57:01.947Z,100.00
2023-05-25T23:59:36.067Z,100.00
